Algood, TN

9:41 AM CDT on October 24, 2014 (GMT -0500)
Forrest Cove Ln and Forrest Rd | Change Station
CLOSE
Current Station
Personal Weather Station
Location: Cookeville, TN
Elevation: 1079 ft
Nearby Weather Stations

Elev 1079 ft 36.20 °N, 85.52 °W | Updated 6 seconds ago

Clear
Clear
55.4 °F
Feels Like 55.4 °F
N
3.0
Wind Variable Wind from WNW
Gusts 4.0 mph

Today
High -- | Low -- °F
--% Chance of Precip.
Yesterday
High -- | Low -- °F
Precip. -- in
6:57 AM 5:54 PM
New Moon, 1% visible
Pressure 30.13 in
Visibility 10.0 miles
Clouds Clear
Dew Point 50 °F
Humidity 78%
Rainfall 0.00 in
Snow Depth Not available.
UV 3 out of 12
Pollen 1.50 out of 12
Air Quality Not available.
Flu Activity Sporadic
METAR KSRB 241435Z AUTO 00000KT 10SM CLR 13/09 A3013 RMK

More Conditions Fewer Conditions

Pressure 30.13 in
Visibility 10.0 miles
Clouds Clear
Dew Point 50 °F
Humidity 78%
Rainfall 0.00 in
Snow Depth Not available.
UV 3 out of 12
Pollen 1.50 out of 12
Air Quality Not available.
Flu Activity Sporadic
METAR KSRB 241435Z AUTO 00000KT 10SM CLR 13/09 A3013 RMK

More Conditions Fewer Conditions

10-Day Weather Forecast

Almanac

Astronomy

Oct. 24, 2014 Rise Set
Actual Time 6:57 AM CDT 5:54 PM CDT
Civil Twilight 6:31 AM CDT 6:20 PM CDT
Nautical Twilight 6:00 AM CDT 6:50 PM CDT
Astronomical Twilight 5:31 AM CDT 7:20 PM CDT
Moon 7:34 AM CDT 6:35 PM CDT
Length of Visible Light 11h 49m
Length of Day
10h 57m
Tomorrow will be 2m 6s shorter.
New Moon, 1% of the Moon is Illuminated
Today
New Moon
Oct 30
First Quarter
Nov 6
Full
Nov 14
Last Quarter
Nov 22
New

Today's Extremes

State Highs State Lows

Community

WunderPhotos

Upload Photos

1,764,581 photos uploaded!

WunderBlogs® & News

Nearby

Snow Depth

Station Depth Elevation
No new snow has been reported.

Earthquake Activity

City Distance Mag. Time & Date
No recent earthquake activity has been reported nearby.
Minimum magnitude displayed is 2.5.

Coastal Water Temperatures

Place Temperature
No Stations Reporting

Nearby Weather Stations